sensor_id;sensor_type;location;lat;lon;timestamp;pressure;altitude;pressure_sealevel;temperature;humidity
30714;BME280;17465;47.934;33.430;2023-03-03T00:00:24;57374.91;;;-140.43;69.59
30714;BME280;17465;47.934;33.430;2023-03-03T00:02:59;57393.98;;;-140.43;70.86
30714;BME280;17465;47.934;33.430;2023-03-03T00:05:53;57390.80;;;-140.43;70.85
30714;BME280;17465;47.934;33.430;2023-03-03T00:08:25;57373.85;;;-140.43;71.75
30714;BME280;17465;47.934;33.430;2023-03-03T00:10:56;57385.50;;;-140.43;71.76
30714;BME280;17465;47.934;33.430;2023-03-03T00:13:27;57389.74;;;-140.43;71.79
30714;BME280;17465;47.934;33.430;2023-03-03T00:18:49;57382.32;;;-140.43;72.38
30714;BME280;17465;47.934;33.430;2023-03-03T00:21:27;57382.32;;;-140.43;72.38
30714;BME280;17465;47.934;33.430;2023-03-03T00:24:14;57392.91;;;-140.43;70.66
30714;BME280;17465;47.934;33.430;2023-03-03T00:26:45;57377.03;;;-140.43;70.95
30714;BME280;17465;47.934;33.430;2023-03-03T00:32:28;57392.91;;;-140.43;70.71
30714;BME280;17465;47.934;33.430;2023-03-03T00:35:28;57398.21;;;-140.43;71.36
30714;BME280;17465;47.934;33.430;2023-03-03T00:38:01;57378.09;;;-140.43;71.90
30714;BME280;17465;47.934;33.430;2023-03-03T00:40:45;57391.86;;;-140.43;71.81
30714;BME280;17465;47.934;33.430;2023-03-03T00:43:24;57400.33;;;-140.43;71.09
30714;BME280;17465;47.934;33.430;2023-03-03T00:45:56;57359.03;;;-140.43;71.53
30714;BME280;17465;47.934;33.430;2023-03-03T00:51:12;57393.98;;;-140.43;71.12
30714;BME280;17465;47.934;33.430;2023-03-03T00:53:38;57380.21;;;-140.43;70.51
30714;BME280;17465;47.934;33.430;2023-03-03T00:56:08;57388.68;;;-140.43;70.65
30714;BME280;17465;47.934;33.430;2023-03-03T00:58:39;57361.14;;;-140.43;70.87
30714;BME280;17465;47.934;33.430;2023-03-03T01:01:10;57361.14;;;-140.43;70.87
30714;BME280;17465;47.934;33.430;2023-03-03T01:03:40;57398.21;;;-140.43;71.51
30714;BME280;17465;47.934;33.430;2023-03-03T01:06:11;57398.21;;;-140.43;71.51
30714;BME280;17465;47.934;33.430;2023-03-03T01:08:42;57357.96;;;-140.43;70.89
30714;BME280;17465;47.934;33.430;2023-03-03T01:11:16;57399.27;;;-140.43;71.20
30714;BME280;17465;47.934;33.430;2023-03-03T01:13:48;57377.03;;;-140.43;72.31
30714;BME280;17465;47.934;33.430;2023-03-03T01:16:20;57357.96;;;-140.43;70.53
30714;BME280;17465;47.934;33.430;2023-03-03T01:18:51;57392.91;;;-140.43;71.16
30714;BME280;17465;47.934;33.430;2023-03-03T01:21:21;57378.09;;;-140.43;70.66
30714;BME280;17465;47.934;33.430;2023-03-03T01:23:52;57389.74;;;-140.43;70.85
30714;BME280;17465;47.934;33.430;2023-03-03T01:26:23;57383.38;;;-140.43;70.54
30714;BME280;17465;47.934;33.430;2023-03-03T01:28:54;57383.38;;;-140.43;70.54
30714;BME280;17465;47.934;33.430;2023-03-03T01:31:25;57365.38;;;-140.43;71.00
30714;BME280;17465;47.934;33.430;2023-03-03T01:33:56;57389.74;;;-140.43;70.92
30714;BME280;17465;47.934;33.430;2023-03-03T01:36:27;57414.10;;;-140.43;71.29
30714;BME280;17465;47.934;33.430;2023-03-03T01:38:58;57393.98;;;-140.43;72.22
30714;BME280;17465;47.934;33.430;2023-03-03T01:41:30;57361.14;;;-140.43;70.42
30714;BME280;17465;47.934;33.430;2023-03-03T01:44:01;57372.79;;;-140.43;70.41
30714;BME280;17465;47.934;33.430;2023-03-03T01:46:53;57396.09;;;-140.43;70.97
30714;BME280;17465;47.934;33.430;2023-03-03T01:49:28;57396.09;;;-140.43;70.97
30714;BME280;17465;47.934;33.430;2023-03-03T01:52:02;57388.68;;;-140.43;71.56
30714;BME280;17465;47.934;33.430;2023-03-03T01:54:41;57378.09;;;-140.43;71.53
30714;BME280;17465;47.934;33.430;2023-03-03T02:00:16;57379.15;;;-140.43;71.31
30714;BME280;17465;47.934;33.430;2023-03-03T02:02:47;57371.73;;;-140.43;71.05
30714;BME280;17465;47.934;33.430;2023-03-03T02:05:18;57418.33;;;-140.43;70.23
30714;BME280;17465;47.934;33.430;2023-03-03T02:07:50;57371.73;;;-140.43;70.27
30714;BME280;17465;47.934;33.430;2023-03-03T02:10:22;57372.79;;;-140.43;70.10
30714;BME280;17465;47.934;33.430;2023-03-03T02:12:56;57387.62;;;-140.43;71.51
30714;BME280;17465;47.934;33.430;2023-03-03T02:15:33;57387.62;;;-140.43;71.51
30714;BME280;17465;47.934;33.430;2023-03-03T02:18:10;57375.97;;;-140.43;71.77
30714;BME280;17465;47.934;33.430;2023-03-03T02:20:53;57372.79;;;-140.43;71.68
30714;BME280;17465;47.934;33.430;2023-03-03T02:26:23;57371.73;;;-140.43;71.72
30714;BME280;17465;47.934;33.430;2023-03-03T02:28:56;57371.73;;;-140.43;71.72
30714;BME280;17465;47.934;33.430;2023-03-03T02:31:29;57385.50;;;-140.43;71.29
30714;BME280;17465;47.934;33.430;2023-03-03T02:34:04;57381.27;;;-140.43;71.27
30714;BME280;17465;47.934;33.430;2023-03-03T02:36:38;57384.44;;;-140.43;71.68
30714;BME280;17465;47.934;33.430;2023-03-03T02:39:23;57397.15;;;-140.43;71.91
30714;BME280;17465;47.934;33.430;2023-03-03T02:42:15;57359.03;;;-140.43;71.17
30714;BME280;17465;47.934;33.430;2023-03-03T02:44:46;57359.03;;;-140.43;71.17
30714;BME280;17465;47.934;33.430;2023-03-03T02:47:17;57402.45;;;-140.43;71.27
30714;BME280;17465;47.934;33.430;2023-03-03T02:49:47;57400.33;;;-140.43;72.03
30714;BME280;17465;47.934;33.430;2023-03-03T02:52:20;57400.33;;;-140.43;72.03
30714;BME280;17465;47.934;33.430;2023-03-03T02:54:56;57397.15;;;-140.43;72.95
30714;BME280;17465;47.934;33.430;2023-03-03T02:57:22;57381.27;;;-140.43;73.01
30714;BME280;17465;47.934;33.430;2023-03-03T02:59:53;57395.03;;;-140.43;73.41
30714;BME280;17465;47.934;33.430;2023-03-03T03:02:24;57391.86;;;-140.43;72.83
30714;BME280;17465;47.934;33.430;2023-03-03T03:04:55;57391.86;;;-140.43;72.83
30714;BME280;17465;47.934;33.430;2023-03-03T03:07:26;57410.92;;;-140.43;73.11
30714;BME280;17465;47.934;33.430;2023-03-03T03:09:56;57393.98;;;-140.43;71.45
30714;BME280;17465;47.934;33.430;2023-03-03T03:12:27;57393.98;;;-140.43;71.45
30714;BME280;17465;47.934;33.430;2023-03-03T03:14:57;57373.85;;;-140.43;73.78
30714;BME280;17465;47.934;33.430;2023-03-03T03:17:27;57398.21;;;-140.43;74.38
30714;BME280;17465;47.934;33.430;2023-03-03T03:19:58;57372.79;;;-140.43;73.65
30714;BME280;17465;47.934;33.430;2023-03-03T03:22:28;57367.50;;;-140.43;73.87
30714;BME280;17465;47.934;33.430;2023-03-03T03:24:59;57370.68;;;-140.43;73.63
30714;BME280;17465;47.934;33.430;2023-03-03T03:27:30;57367.50;;;-140.43;74.40
30714;BME280;17465;47.934;33.430;2023-03-03T03:30:01;57367.50;;;-140.43;74.09
30714;BME280;17465;47.934;33.430;2023-03-03T03:32:32;57371.73;;;-140.43;72.89
30714;BME280;17465;47.934;33.430;2023-03-03T03:35:02;57388.68;;;-140.43;73.56
30714;BME280;17465;47.934;33.430;2023-03-03T03:37:33;57388.68;;;-140.43;73.56
30714;BME280;17465;47.934;33.430;2023-03-03T03:40:03;57387.62;;;-140.43;74.05
30714;BME280;17465;47.934;33.430;2023-03-03T03:42:34;57390.80;;;-140.43;74.52
30714;BME280;17465;47.934;33.430;2023-03-03T03:45:06;57399.27;;;-140.43;74.51
30714;BME280;17465;47.934;33.430;2023-03-03T03:47:36;57399.27;;;-140.43;74.51
30714;BME280;17465;47.934;33.430;2023-03-03T03:50:08;57392.91;;;-140.43;74.38
30714;BME280;17465;47.934;33.430;2023-03-03T03:52:39;57393.98;;;-140.43;75.02
30714;BME280;17465;47.934;33.430;2023-03-03T03:55:09;57393.98;;;-140.43;75.02
30714;BME280;17465;47.934;33.430;2023-03-03T04:00:32;57402.45;;;-140.43;73.57
30714;BME280;17465;47.934;33.430;2023-03-03T04:03:02;57366.44;;;-140.43;73.72
30714;BME280;17465;47.934;33.430;2023-03-03T04:05:34;57384.44;;;-140.43;73.94
30714;BME280;17465;47.934;33.430;2023-03-03T04:08:04;57362.20;;;-140.43;73.36
30714;BME280;17465;47.934;33.430;2023-03-03T04:10:35;57362.20;;;-140.43;73.36
30714;BME280;17465;47.934;33.430;2023-03-03T04:13:06;57383.38;;;-140.43;73.48
30714;BME280;17465;47.934;33.430;2023-03-03T04:15:38;57365.38;;;-140.43;73.74
30714;BME280;17465;47.934;33.430;2023-03-03T04:18:09;57357.96;;;-140.43;72.04
30714;BME280;17465;47.934;33.430;2023-03-03T04:20:39;57357.96;;;-140.43;72.04
30714;BME280;17465;47.934;33.430;2023-03-03T04:23:10;57350.55;;;-140.43;72.36
30714;BME280;17465;47.934;33.430;2023-03-03T04:25:40;57362.20;;;-140.43;73.43
30714;BME280;17465;47.934;33.430;2023-03-03T04:28:11;57362.20;;;-140.43;73.43
30714;BME280;17465;47.934;33.430;2023-03-03T04:30:42;57378.09;;;-140.43;73.92
30714;BME280;17465;47.934;33.430;2023-03-03T04:33:14;57393.98;;;-140.43;75.14
30714;BME280;17465;47.934;33.430;2023-03-03T04:35:45;57380.21;;;-140.43;73.82
30714;BME280;17465;47.934;33.430;2023-03-03T04:38:16;57383.38;;;-140.43;74.51
30714;BME280;17465;47.934;33.430;2023-03-03T04:40:47;57382.32;;;-140.43;74.25
30714;BME280;17465;47.934;33.430;2023-03-03T04:43:18;57385.50;;;-140.43;74.44
30714;BME280;17465;47.934;33.430;2023-03-03T04:45:50;57359.03;;;-140.43;74.97
30714;BME280;17465;47.934;33.430;2023-03-03T04:48:21;57389.74;;;-140.43;76.73
30714;BME280;17465;47.934;33.430;2023-03-03T04:50:51;57390.80;;;-140.43;75.75
30714;BME280;17465;47.934;33.430;2023-03-03T04:53:22;57392.91;;;-140.43;74.37
30714;BME280;17465;47.934;33.430;2023-03-03T04:55:53;57361.14;;;-140.43;74.74
30714;BME280;17465;47.934;33.430;2023-03-03T04:58:25;57372.79;;;-140.43;73.50
30714;BME280;17465;47.934;33.430;2023-03-03T05:00:59;57384.44;;;-140.43;73.40
30714;BME280;17465;47.934;33.430;2023-03-03T05:03:29;57381.27;;;-140.43;73.92
30714;BME280;17465;47.934;33.430;2023-03-03T05:06:00;57381.27;;;-140.43;73.92
30714;BME280;17465;47.934;33.430;2023-03-03T05:08:32;57368.55;;;-140.43;73.04
30714;BME280;17465;47.934;33.430;2023-03-03T05:11:03;57368.55;;;-140.43;73.04
30714;BME280;17465;47.934;33.430;2023-03-03T05:13:34;57366.44;;;-140.43;72.60
30714;BME280;17465;47.934;33.430;2023-03-03T05:16:06;57350.55;;;-140.43;72.63
30714;BME280;17465;47.934;33.430;2023-03-03T05:18:40;57350.55;;;-140.43;72.63
30714;BME280;17465;47.934;33.430;2023-03-03T05:21:11;57378.09;;;-140.43;73.94
30714;BME280;17465;47.934;33.430;2023-03-03T05:23:42;57365.38;;;-140.43;73.06
30714;BME280;17465;47.934;33.430;2023-03-03T05:26:13;57357.96;;;-140.43;72.98
30714;BME280;17465;47.934;33.430;2023-03-03T05:28:45;57374.91;;;-140.43;73.45
30714;BME280;17465;47.934;33.430;2023-03-03T05:31:15;57374.91;;;-140.43;73.45
30714;BME280;17465;47.934;33.430;2023-03-03T05:33:46;57368.55;;;-140.43;73.53
30714;BME280;17465;47.934;33.430;2023-03-03T05:36:17;57366.44;;;-140.43;74.46
30714;BME280;17465;47.934;33.430;2023-03-03T05:38:48;57349.49;;;-140.43;73.60
30714;BME280;17465;47.934;33.430;2023-03-03T05:41:19;57349.49;;;-140.43;73.60
30714;BME280;17465;47.934;33.430;2023-03-03T05:43:50;57369.62;;;-140.43;73.74
30714;BME280;17465;47.934;33.430;2023-03-03T05:46:21;57369.62;;;-140.43;73.74
30714;BME280;17465;47.934;33.430;2023-03-03T05:48:52;57384.44;;;-140.43;72.92
30714;BME280;17465;47.934;33.430;2023-03-03T05:51:22;57380.21;;;-140.43;72.94
30714;BME280;17465;47.934;33.430;2023-03-03T05:53:53;57364.32;;;-140.43;72.02
30714;BME280;17465;47.934;33.430;2023-03-03T05:56:26;57364.32;;;-140.43;72.02
30714;BME280;17465;47.934;33.430;2023-03-03T05:58:56;57375.97;;;-140.43;71.97
30714;BME280;17465;47.934;33.430;2023-03-03T06:01:27;57388.68;;;-140.43;72.32
30714;BME280;17465;47.934;33.430;2023-03-03T06:03:58;57377.03;;;-140.43;72.53
30714;BME280;17465;47.934;33.430;2023-03-03T06:06:28;57350.55;;;-140.43;72.02
30714;BME280;17465;47.934;33.430;2023-03-03T06:08:59;57370.68;;;-140.43;71.60
30714;BME280;17465;47.934;33.430;2023-03-03T06:11:30;57360.08;;;-140.43;71.33
30714;BME280;17465;47.934;33.430;2023-03-03T06:14:01;57389.74;;;-140.43;71.85
30714;BME280;17465;47.934;33.430;2023-03-03T06:16:32;57389.74;;;-140.43;71.85
30714;BME280;17465;47.934;33.430;2023-03-03T06:19:02;57363.26;;;-140.43;71.76
30714;BME280;17465;47.934;33.430;2023-03-03T06:21:33;57363.26;;;-140.43;71.76
30714;BME280;17465;47.934;33.430;2023-03-03T06:24:05;57383.38;;;-140.43;73.42
30714;BME280;17465;47.934;33.430;2023-03-03T06:26:36;57359.03;;;-140.43;73.50
30714;BME280;17465;47.934;33.430;2023-03-03T06:29:06;57378.09;;;-140.43;72.94
30714;BME280;17465;47.934;33.430;2023-03-03T06:31:39;57345.26;;;-140.43;71.89
30714;BME280;17465;47.934;33.430;2023-03-03T06:34:09;57357.96;;;-140.43;72.89
30714;BME280;17465;47.934;33.430;2023-03-03T06:36:42;57355.85;;;-140.43;72.51
30714;BME280;17465;47.934;33.430;2023-03-03T06:39:12;57356.91;;;-140.43;71.98
30714;BME280;17465;47.934;33.430;2023-03-03T06:41:43;57371.73;;;-140.43;73.02
30714;BME280;17465;47.934;33.430;2023-03-03T06:44:13;57362.20;;;-140.43;72.80
30714;BME280;17465;47.934;33.430;2023-03-03T06:46:49;57351.61;;;-140.43;72.66
30714;BME280;17465;47.934;33.430;2023-03-03T06:49:16;57367.50;;;-140.43;72.35
30714;BME280;17465;47.934;33.430;2023-03-03T06:51:52;57378.09;;;-140.43;71.38
30714;BME280;17465;47.934;33.430;2023-03-03T06:54:29;57321.96;;;-140.43;71.89
30714;BME280;17465;47.934;33.430;2023-03-03T06:57:15;57345.26;;;-140.43;71.16
30714;BME280;17465;47.934;33.430;2023-03-03T06:59:34;57375.97;;;-140.43;70.93
30714;BME280;17465;47.934;33.430;2023-03-03T07:02:11;57367.50;;;-140.43;72.28
30714;BME280;17465;47.934;33.430;2023-03-03T07:04:38;57370.68;;;-140.43;72.27
30714;BME280;17465;47.934;33.430;2023-03-03T07:07:18;57335.73;;;-140.43;71.90
30714;BME280;17465;47.934;33.430;2023-03-03T07:09:56;57335.73;;;-140.43;71.90
30714;BME280;17465;47.934;33.430;2023-03-03T07:12:28;57351.61;;;-140.43;71.97
30714;BME280;17465;47.934;33.430;2023-03-03T07:15:11;57361.14;;;-140.43;71.22
30714;BME280;17465;47.934;33.430;2023-03-03T07:17:41;57367.50;;;-140.43;71.96
30714;BME280;17465;47.934;33.430;2023-03-03T07:20:22;57368.55;;;-140.43;71.88
30714;BME280;17465;47.934;33.430;2023-03-03T07:22:53;57349.49;;;-140.43;70.49
30714;BME280;17465;47.934;33.430;2023-03-03T07:25:29;57349.49;;;-140.43;70.05
30714;BME280;17465;47.934;33.430;2023-03-03T07:28:15;57352.67;;;-140.43;70.08
30714;BME280;17465;47.934;33.430;2023-03-03T07:30:43;57347.38;;;-140.43;69.91
30714;BME280;17465;47.934;33.430;2023-03-03T07:33:35;57347.38;;;-140.43;69.91
30714;BME280;17465;47.934;33.430;2023-03-03T07:36:18;57365.38;;;-140.43;70.80
30714;BME280;17465;47.934;33.430;2023-03-03T07:38:42;57355.85;;;-140.43;69.30
30714;BME280;17465;47.934;33.430;2023-03-03T07:41:20;57355.85;;;-140.43;69.30
30714;BME280;17465;47.934;33.430;2023-03-03T07:44:04;57339.96;;;-140.43;70.54
30714;BME280;17465;47.934;33.430;2023-03-03T07:46:46;57361.14;;;-140.43;71.56
30714;BME280;17465;47.934;33.430;2023-03-03T07:51:57;57326.20;;;-140.43;71.05
30714;BME280;17465;47.934;33.430;2023-03-03T07:54:39;57368.55;;;-140.43;70.45
30714;BME280;17465;47.934;33.430;2023-03-03T08:03:19;57331.49;;;-140.43;71.16
30714;BME280;17465;47.934;33.430;2023-03-03T08:05:50;57355.85;;;-140.43;70.37
30714;BME280;17465;47.934;33.430;2023-03-03T08:08:35;57355.85;;;-140.43;70.37
30714;BME280;17465;47.934;33.430;2023-03-03T08:11:06;57356.91;;;-140.43;70.83
30714;BME280;17465;47.934;33.430;2023-03-03T08:13:39;57334.67;;;-140.43;70.16
30714;BME280;17465;47.934;33.430;2023-03-03T08:18:49;57332.55;;;-140.43;69.88
30714;BME280;17465;47.934;33.430;2023-03-03T08:21:24;57379.15;;;-140.43;71.34
30714;BME280;17465;47.934;33.430;2023-03-03T08:23:56;57360.08;;;-140.43;69.56
30714;BME280;17465;47.934;33.430;2023-03-03T08:26:26;57324.07;;;-140.43;69.91
30714;BME280;17465;47.934;33.430;2023-03-03T08:28:58;57341.02;;;-140.43;70.69
30714;BME280;17465;47.934;33.430;2023-03-03T08:31:29;57363.26;;;-140.43;71.45
30714;BME280;17465;47.934;33.430;2023-03-03T08:34:01;57307.13;;;-140.43;70.07
30714;BME280;17465;47.934;33.430;2023-03-03T08:36:32;57307.13;;;-140.43;70.07
30714;BME280;17465;47.934;33.430;2023-03-03T08:39:05;57362.20;;;-140.43;69.67
30714;BME280;17465;47.934;33.430;2023-03-03T08:41:35;57355.85;;;-140.43;69.62
30714;BME280;17465;47.934;33.430;2023-03-03T08:44:06;57331.49;;;-140.43;69.99
30714;BME280;17465;47.934;33.430;2023-03-03T08:46:37;57315.61;;;-140.43;70.01
30714;BME280;17465;47.934;33.430;2023-03-03T08:49:13;57323.02;;;-140.43;69.20
30714;BME280;17465;47.934;33.430;2023-03-03T08:51:45;57323.02;;;-140.43;69.20
30714;BME280;17465;47.934;33.430;2023-03-03T08:54:15;57350.55;;;-140.43;69.87
30714;BME280;17465;47.934;33.430;2023-03-03T08:56:47;57342.08;;;-140.43;68.14
30714;BME280;17465;47.934;33.430;2023-03-03T08:59:17;57342.08;;;-140.43;68.14
30714;BME280;17465;47.934;33.430;2023-03-03T09:01:48;57360.08;;;-140.43;68.84
30714;BME280;17465;47.934;33.430;2023-03-03T09:04:18;57344.20;;;-140.43;68.96
30714;BME280;17465;47.934;33.430;2023-03-03T09:06:52;57350.55;;;-140.43;68.75
30714;BME280;17465;47.934;33.430;2023-03-03T09:09:24;57352.67;;;-140.43;67.85
30714;BME280;17465;47.934;33.430;2023-03-03T09:11:57;57343.14;;;-140.43;68.26
30714;BME280;17465;47.934;33.430;2023-03-03T09:14:35;57343.14;;;-140.43;68.26
30714;BME280;17465;47.934;33.430;2023-03-03T09:17:07;57342.08;;;-140.43;69.08
30714;BME280;17465;47.934;33.430;2023-03-03T09:19:37;57356.91;;;-140.43;67.65
30714;BME280;17465;47.934;33.430;2023-03-03T09:22:22;57356.91;;;-140.43;67.65
30714;BME280;17465;47.934;33.430;2023-03-03T09:24:56;57329.37;;;-140.43;66.71
30714;BME280;17465;47.934;33.430;2023-03-03T09:27:33;57357.96;;;-140.43;67.76
30714;BME280;17465;47.934;33.430;2023-03-03T09:32:57;57333.61;;;-140.43;68.52
30714;BME280;17465;47.934;33.430;2023-03-03T09:35:33;57327.25;;;-140.43;68.56
30714;BME280;17465;47.934;33.430;2023-03-03T09:41:33;57318.78;;;-140.43;65.62
30714;BME280;17465;47.934;33.430;2023-03-03T09:52:51;57356.91;;;-140.43;68.49
30714;BME280;17465;47.934;33.430;2023-03-03T10:08:28;57326.20;;;-140.43;69.18
30714;BME280;17465;47.934;33.430;2023-03-03T10:18:51;57317.72;;;-140.43;67.80
30714;BME280;17465;47.934;33.430;2023-03-03T10:24:30;57334.67;;;-140.43;66.15
30714;BME280;17465;47.934;33.430;2023-03-03T10:27:12;57349.49;;;-140.43;64.89
30714;BME280;17465;47.934;33.430;2023-03-03T10:32:42;57319.84;;;-140.43;67.39
30714;BME280;17465;47.934;33.430;2023-03-03T10:44:22;57310.31;;;-140.43;65.72
30714;BME280;17465;47.934;33.430;2023-03-03T10:52:49;57328.31;;;-140.43;66.20
30714;BME280;17465;47.934;33.430;2023-03-03T10:58:44;57320.90;;;-140.43;65.64
30714;BME280;17465;47.934;33.430;2023-03-03T11:07:10;57321.96;;;-140.43;63.93
30714;BME280;17465;47.934;33.430;2023-03-03T11:15:38;57354.79;;;-140.43;61.65
30714;BME280;17465;47.934;33.430;2023-03-03T11:24:11;57314.55;;;-140.43;63.16
30714;BME280;17465;47.934;33.430;2023-03-03T11:32:51;57348.43;;;-140.43;61.29
30714;BME280;17465;47.934;33.430;2023-03-03T11:35:39;57324.07;;;-140.43;59.68
30714;BME280;17465;47.934;33.430;2023-03-03T11:38:32;57300.78;;;-140.43;58.65
30714;BME280;17465;47.934;33.430;2023-03-03T11:49:49;57323.02;;;-140.43;59.59
30714;BME280;17465;47.934;33.430;2023-03-03T11:52:44;57325.14;;;-140.43;59.63
30714;BME280;17465;47.934;33.430;2023-03-03T11:55:18;57334.67;;;-140.43;60.69
30714;BME280;17465;47.934;33.430;2023-03-03T11:58:24;57334.67;;;-140.43;60.69
30714;BME280;17465;47.934;33.430;2023-03-03T12:01:17;57359.03;;;-140.43;60.88
30714;BME280;17465;47.934;33.430;2023-03-03T12:03:52;57354.79;;;-140.43;58.73
30714;BME280;17465;47.934;33.430;2023-03-03T12:06:32;57337.84;;;-140.43;58.37
30714;BME280;17465;47.934;33.430;2023-03-03T12:12:24;57308.19;;;-140.43;56.57
30714;BME280;17465;47.934;33.430;2023-03-03T12:23:49;57324.07;;;-140.43;58.44
30714;BME280;17465;47.934;33.430;2023-03-03T12:26:27;57294.42;;;-140.43;58.97
30714;BME280;17465;47.934;33.430;2023-03-03T12:29:04;57329.37;;;-140.43;54.86
30714;BME280;17465;47.934;33.430;2023-03-03T12:31:50;57277.48;;;-140.43;55.62
30714;BME280;17465;47.934;33.430;2023-03-03T12:34:33;57330.43;;;-140.43;57.29
30714;BME280;17465;47.934;33.430;2023-03-03T12:37:53;57337.84;;;-140.43;56.37
30714;BME280;17465;47.934;33.430;2023-03-03T12:40:35;57311.37;;;-140.43;54.30
30714;BME280;17465;47.934;33.430;2023-03-03T12:43:18;57311.37;;;-140.43;54.30
30714;BME280;17465;47.934;33.430;2023-03-03T12:46:12;57312.43;;;-140.43;55.36
30714;BME280;17465;47.934;33.430;2023-03-03T12:48:47;57326.20;;;-140.43;55.82
30714;BME280;17465;47.934;33.430;2023-03-03T12:56:55;57324.07;;;-140.43;52.60
30714;BME280;17465;47.934;33.430;2023-03-03T13:05:44;57313.48;;;-140.43;53.45
30714;BME280;17465;47.934;33.430;2023-03-03T13:08:38;57306.07;;;-140.43;54.48
30714;BME280;17465;47.934;33.430;2023-03-03T13:11:31;57331.49;;;-140.43;53.45
30714;BME280;17465;47.934;33.430;2023-03-03T13:14:25;57331.49;;;-140.43;53.45
30714;BME280;17465;47.934;33.430;2023-03-03T13:20:29;57368.55;;;-140.43;51.93
30714;BME280;17465;47.934;33.430;2023-03-03T13:22:40;57330.43;;;-140.43;52.21
30714;BME280;17465;47.934;33.430;2023-03-03T13:25:49;57330.43;;;-140.43;52.21
30714;BME280;17465;47.934;33.430;2023-03-03T13:31:22;57335.73;;;-140.43;53.69
30714;BME280;17465;47.934;33.430;2023-03-03T13:33:52;57331.49;;;-140.43;53.60
30714;BME280;17465;47.934;33.430;2023-03-03T13:36:46;57315.61;;;-140.43;52.82
30714;BME280;17465;47.934;33.430;2023-03-03T13:46:57;57332.55;;;-140.43;53.74
30714;BME280;17465;47.934;33.430;2023-03-03T13:49:57;57353.73;;;-140.43;52.57
30714;BME280;17465;47.934;33.430;2023-03-03T13:52:39;57321.96;;;-140.43;52.79
30714;BME280;17465;47.934;33.430;2023-03-03T13:57:59;57349.49;;;-140.43;55.45
30714;BME280;17465;47.934;33.430;2023-03-03T14:00:53;57335.73;;;-140.43;53.42
30714;BME280;17465;47.934;33.430;2023-03-03T14:06:27;57331.49;;;-140.43;51.30
30714;BME280;17465;47.934;33.430;2023-03-03T14:09:21;57345.26;;;-140.43;52.07
30714;BME280;17465;47.934;33.430;2023-03-03T14:18:20;57350.55;;;-140.43;52.79
30714;BME280;17465;47.934;33.430;2023-03-03T14:20:52;57301.84;;;-140.43;52.39
30714;BME280;17465;47.934;33.430;2023-03-03T14:23:48;57317.72;;;-140.43;52.26
30714;BME280;17465;47.934;33.430;2023-03-03T14:26:18;57325.14;;;-140.43;52.40
30714;BME280;17465;47.934;33.430;2023-03-03T14:28:50;57334.67;;;-140.43;52.41
30714;BME280;17465;47.934;33.430;2023-03-03T14:31:28;57334.67;;;-140.43;52.41
30714;BME280;17465;47.934;33.430;2023-03-03T14:34:13;57338.90;;;-140.43;53.35
30714;BME280;17465;47.934;33.430;2023-03-03T14:36:42;57338.90;;;-140.43;53.35
30714;BME280;17465;47.934;33.430;2023-03-03T14:39:34;57329.37;;;-140.43;54.16
30714;BME280;17465;47.934;33.430;2023-03-03T14:42:12;57348.43;;;-140.43;55.58
30714;BME280;17465;47.934;33.430;2023-03-03T14:44:52;57337.84;;;-140.43;54.28
30714;BME280;17465;47.934;33.430;2023-03-03T14:47:26;57333.61;;;-140.43;55.29
30714;BME280;17465;47.934;33.430;2023-03-03T14:50:00;57316.66;;;-140.43;54.93
30714;BME280;17465;47.934;33.430;2023-03-03T14:52:37;57334.67;;;-140.43;54.36
30714;BME280;17465;47.934;33.430;2023-03-03T14:55:32;57321.96;;;-140.43;53.47
30714;BME280;17465;47.934;33.430;2023-03-03T14:58:23;57344.20;;;-140.43;55.22
30714;BME280;17465;47.934;33.430;2023-03-03T15:00:42;57337.84;;;-140.43;52.80
30714;BME280;17465;47.934;33.430;2023-03-03T15:05:57;57321.96;;;-140.43;53.05
30714;BME280;17465;47.934;33.430;2023-03-03T15:08:33;57316.66;;;-140.43;54.64
30714;BME280;17465;47.934;33.430;2023-03-03T15:11:31;57354.79;;;-140.43;55.36
30714;BME280;17465;47.934;33.430;2023-03-03T15:20:40;57336.79;;;-140.43;55.34
30714;BME280;17465;47.934;33.430;2023-03-03T15:23:33;57318.78;;;-140.43;55.16
30714;BME280;17465;47.934;33.430;2023-03-03T15:29:48;57338.90;;;-140.43;55.68
30714;BME280;17465;47.934;33.430;2023-03-03T15:32:45;57344.20;;;-140.43;53.31
30714;BME280;17465;47.934;33.430;2023-03-03T15:35:27;57314.55;;;-140.43;52.93
30714;BME280;17465;47.934;33.430;2023-03-03T15:38:12;57314.55;;;-140.43;52.93
30714;BME280;17465;47.934;33.430;2023-03-03T15:40:53;57325.14;;;-140.43;53.14
30714;BME280;17465;47.934;33.430;2023-03-03T15:43:42;57355.85;;;-140.43;53.31
30714;BME280;17465;47.934;33.430;2023-03-03T16:00:30;57323.02;;;-140.43;56.43
30714;BME280;17465;47.934;33.430;2023-03-03T16:03:46;57338.90;;;-140.43;54.82
30714;BME280;17465;47.934;33.430;2023-03-03T16:05:48;57346.32;;;-140.43;54.64
30714;BME280;17465;47.934;33.430;2023-03-03T16:11:25;57318.78;;;-140.43;54.35
30714;BME280;17465;47.934;33.430;2023-03-03T16:17:16;57320.90;;;-140.43;55.10
30714;BME280;17465;47.934;33.430;2023-03-03T16:22:52;57337.84;;;-140.43;55.41
30714;BME280;17465;47.934;33.430;2023-03-03T16:25:39;57337.84;;;-140.43;55.41
30714;BME280;17465;47.934;33.430;2023-03-03T16:33:34;57325.14;;;-140.43;56.22
30714;BME280;17465;47.934;33.430;2023-03-03T16:47:04;57319.84;;;-140.43;55.04
30714;BME280;17465;47.934;33.430;2023-03-03T16:49:39;57332.55;;;-140.43;55.66
30714;BME280;17465;47.934;33.430;2023-03-03T16:52:16;57332.55;;;-140.43;55.30
30714;BME280;17465;47.934;33.430;2023-03-03T17:01:04;57342.08;;;-140.43;56.72